Time;durP1;ratioP1;P1;durP2;ratioP2;P2;SDS_P1;SDS_P2;PMS_P1;PMS_P2;Temp;Humidity;BMP_temperature;BMP_pressure;BME280_temperature;BME280_humidity;BME280_pressure;Samples;Min_cycle;Max_cycle;Signal;HPM_P1;HPM_P2
2023/07/30 00:00:43;;;;;;;;;;;;;;;;;;5034974;28;20234;-20
2023/07/30 00:03:09;;;;;;;;;;;;;;;;;;5034601;28;20047;-21
2023/07/30 00:05:35;;;;;;;;;;;;;;;;;;5034657;28;19913;-21
2023/07/30 00:08:01;;;;;;;;;;;;;;;;;;5034596;28;20335;-20
2023/07/30 00:10:27;;;;;;;;;;;;;;;;;;5034799;28;19945;-20
2023/07/30 00:12:53;;;;;;;;;;;;;;;;;;5035181;28;19909;-20
2023/07/30 00:15:19;;;;;;;;;;;;;;;;;;5034764;28;19920;-22
2023/07/30 00:17:45;;;;;;;;;;;;;;;;;;5034531;28;19960;-21
2023/07/30 00:20:11;;;;;;;;;;;;;;;;;;5033494;28;19919;-21
2023/07/30 00:22:37;;;;;;;;;;;;;;;;;;5034631;28;19910;-20
2023/07/30 00:25:03;;;;;;;;;;;;;;;;;;5034409;28;20303;-20
2023/07/30 00:27:29;;;;;;;;;;;;;;;;;;5033323;28;20032;-23
2023/07/30 00:29:55;;;;;;;;;;;;;;;;;;5034391;28;19909;-22
2023/07/30 00:32:21;;;;;;;;;;;;;;;;;;5034470;28;19932;-22
2023/07/30 00:34:47;;;;;;;;;;;;;;;;;;5034354;28;20370;-21
2023/07/30 00:37:13;;;;;;;;;;;;;;;;;;5034344;28;19916;-20
2023/07/30 00:39:39;;;;;;;;;;;;;;;;;;5034587;28;19963;-21
2023/07/30 00:42:05;;;;;;;;;;;;;;;;;;5034236;28;20340;-22
2023/07/30 00:44:31;;;;;;;;;;;;;;;;;;5034215;28;19967;-22
2023/07/30 00:46:57;;;;;;;;;;;;;;;;;;5034154;28;19913;-21
2023/07/30 00:49:23;;;;;;;;;;;;;;;;;;5034428;28;19916;-21
2023/07/30 00:51:49;;;;;;;;;;;;;;;;;;5034263;28;19910;-20
2023/07/30 00:54:15;;;;;;;;;;;;;;;;;;5034387;28;19909;-20
2023/07/30 00:56:41;;;;;;;;;;;;;;;;;;5034168;28;20248;-21
2023/07/30 00:59:06;;;;;;;;;;;;;;;;;;5034391;28;20328;-22
2023/07/30 01:01:32;;;;;;;;;;;;;;;;;;5033084;28;19910;-21
2023/07/30 01:03:58;;;;;;;;;;;;;;;;;;5033908;28;20355;-22
2023/07/30 01:06:24;;;;;;;;;;;;;;;;;;5034241;28;19909;-21
2023/07/30 01:08:50;;;;;;;;;;;;;;;;;;5034558;28;19920;-21
2023/07/30 01:11:16;;;;;;;;;;;;;;;;;;5037900;28;19913;-21
2023/07/30 01:13:42;;;;;;;;;;;;;;;;;;5037540;28;19909;-22
2023/07/30 01:16:08;;;;;;;;;;;;;;;;;;5037893;28;20320;-22
2023/07/30 01:18:34;;;;;;;;;;;;;;;;;;5036559;28;19935;-20
2023/07/30 01:21:00;;;;;;;;;;;;;;;;;;5037567;28;19952;-20
2023/07/30 01:23:26;;;;;;;;;;;;;;;;;;5037388;28;19910;-22
2023/07/30 01:25:52;;;;;;;;;;;;;;;;;;5037377;28;19997;-21
2023/07/30 01:28:18;;;;;;;;;;;;;;;;;;5037265;28;19944;-22
2023/07/30 01:30:44;;;;;;;;;;;;;;;;;;5037351;28;19913;-22
2023/07/30 01:33:10;;;;;;;;;;;;;;;;;;5036217;28;20241;-20
2023/07/30 01:35:36;;;;;;;;;;;;;;;;;;5037249;28;19920;-20
2023/07/30 01:38:03;;;;;;;;;;;;;;;;;;5037413;28;20004;-22
2023/07/30 01:40:29;;;;;;;;;;;;;;;;;;5037039;28;19920;-21
2023/07/30 01:42:55;;;;;;;;;;;;;;;;;;5036986;28;20233;-23
2023/07/30 01:45:21;;;;;;;;;;;;;;;;;;5036982;28;20259;-21
2023/07/30 01:47:47;;;;;;;;;;;;;;;;;;5036939;28;20338;-21
2023/07/30 01:50:13;;;;;;;;;;;;;;;;;;5036976;28;19916;-22
2023/07/30 01:52:39;;;;;;;;;;;;;;;;;;5037160;28;19935;-20
2023/07/30 01:55:05;;;;;;;;;;;;;;;;;;5036933;28;19917;-21
2023/07/30 01:57:31;;;;;;;;;;;;;;;;;;5037148;28;20008;-21
2023/07/30 01:59:57;;;;;;;;;;;;;;;;;;5036844;28;20344;-21
2023/07/30 02:02:23;;;;;;;;;;;;;;;;;;5035583;28;19916;-20
2023/07/30 02:04:49;;;;;;;;;;;;;;;;;;5035581;28;19944;-22
2023/07/30 02:07:15;;;;;;;;;;;;;;;;;;5036563;28;19921;-20
2023/07/30 02:09:41;;;;;;;;;;;;;;;;;;5037109;28;19967;-20
2023/07/30 02:12:06;;;;;;;;;;;;;;;;;;5036741;28;19909;-22
2023/07/30 02:14:32;;;;;;;;;;;;;;;;;;5036749;28;19999;-22
2023/07/30 02:16:58;;;;;;;;;;;;;;;;;;5036459;28;19913;-21
2023/07/30 02:19:24;;;;;;;;;;;;;;;;;;5035389;28;19909;-20
2023/07/30 02:21:50;;;;;;;;;;;;;;;;;;5035286;28;19909;-20
2023/07/30 02:24:16;;;;;;;;;;;;;;;;;;5036563;28;19909;-21
2023/07/30 02:26:42;;;;;;;;;;;;;;;;;;5036502;28;20344;-21
2023/07/30 02:29:08;;;;;;;;;;;;;;;;;;5036153;28;20237;-22
2023/07/30 02:31:34;;;;;;;;;;;;;;;;;;5036214;28;19972;-22
2023/07/30 02:34:00;;;;;;;;;;;;;;;;;;5036131;28;20275;-20
2023/07/30 02:36:26;;;;;;;;;;;;;;;;;;5036605;28;19920;-20
2023/07/30 02:38:52;;;;;;;;;;;;;;;;;;5036296;28;20071;-20
2023/07/30 02:41:18;;;;;;;;;;;;;;;;;;5035977;28;20293;-21
2023/07/30 02:43:44;;;;;;;;;;;;;;;;;;5034927;28;19921;-22
2023/07/30 02:46:10;;;;;;;;;;;;;;;;;;5034961;28;19948;-21
2023/07/30 02:48:36;;;;;;;;;;;;;;;;;;5034778;28;19924;-20
2023/07/30 02:51:02;;;;;;;;;;;;;;;;;;5035886;28;19909;-22
2023/07/30 02:53:28;;;;;;;;;;;;;;;;;;5035759;28;19935;-20
2023/07/30 02:55:54;;;;;;;;;;;;;;;;;;5034730;28;19909;-21
2023/07/30 02:58:20;;;;;;;;;;;;;;;;;;5036417;28;19928;-21
2023/07/30 03:00:46;;;;;;;;;;;;;;;;;;5035613;28;19920;-21
2023/07/30 03:03:12;;;;;;;;;;;;;;;;;;5034320;28;20071;-24
2023/07/30 03:05:38;;;;;;;;;;;;;;;;;;5035895;28;19932;-28
2023/07/30 03:08:04;;;;;;;;;;;;;;;;;;5035479;28;19920;-30
2023/07/30 03:10:30;;;;;;;;;;;;;;;;;;5035760;28;19909;-29
2023/07/30 03:12:56;;;;;;;;;;;;;;;;;;5035437;28;19963;-26
2023/07/30 03:15:22;;;;;;;;;;;;;;;;;;5035627;28;20344;-28
2023/07/30 03:17:48;;;;;;;;;;;;;;;;;;5035354;28;19917;-23
2023/07/30 03:20:14;;;;;;;;;;;;;;;;;;5035278;28;19967;-27
2023/07/30 03:22:40;;;;;;;;;;;;;;;;;;5035397;28;19913;-22
2023/07/30 03:25:06;;;;;;;;;;;;;;;;;;5035521;28;19910;-22
2023/07/30 03:27:32;;;;;;;;;;;;;;;;;;5035127;28;19919;-29
2023/07/30 03:29:58;;;;;;;;;;;;;;;;;;5035162;28;19913;-29
2023/07/30 03:32:24;;;;;;;;;;;;;;;;;;5034783;28;19963;-23
2023/07/30 03:34:49;;;;;;;;;;;;;;;;;;5035280;28;19971;-26
2023/07/30 03:37:15;;;;;;;;;;;;;;;;;;5035025;28;19910;-26
2023/07/30 03:39:41;;;;;;;;;;;;;;;;;;5035245;28;19909;-30
2023/07/30 03:42:07;;;;;;;;;;;;;;;;;;5034896;28;19909;-27
2023/07/30 03:44:33;;;;;;;;;;;;;;;;;;5035179;28;20252;-24
2023/07/30 03:46:59;;;;;;;;;;;;;;;;;;5034882;28;19909;-26
2023/07/30 03:49:25;;;;;;;;;;;;;;;;;;5034827;28;19916;-26
2023/07/30 03:51:51;;;;;;;;;;;;;;;;;;5034788;28;19909;-34
2023/07/30 03:54:17;;;;;;;;;;;;;;;;;;5035061;28;19986;-25
2023/07/30 03:56:43;;;;;;;;;;;;;;;;;;5034790;28;19992;-25
2023/07/30 03:59:09;;;;;;;;;;;;;;;;;;5035027;28;19917;-24
2023/07/30 04:01:35;;;;;;;;;;;;;;;;;;5034901;28;19913;-26
2023/07/30 04:04:01;;;;;;;;;;;;;;;;;;5034370;28;19929;-27
2023/07/30 04:06:27;;;;;;;;;;;;;;;;;;5034834;28;19909;-25
2023/07/30 04:08:53;;;;;;;;;;;;;;;;;;5034470;28;19920;-24
2023/07/30 04:11:19;;;;;;;;;;;;;;;;;;5034600;28;19913;-29
2023/07/30 04:13:45;;;;;;;;;;;;;;;;;;5034542;28;19909;-28
2023/07/30 04:16:11;;;;;;;;;;;;;;;;;;5034529;28;19909;-25
2023/07/30 04:18:37;;;;;;;;;;;;;;;;;;5034750;28;19917;-23
2023/07/30 04:21:03;;;;;;;;;;;;;;;;;;5034532;28;19909;-28
2023/07/30 04:23:28;;;;;;;;;;;;;;;;;;5034660;28;19913;-27
2023/07/30 04:25:54;;;;;;;;;;;;;;;;;;5034800;28;19909;-27
2023/07/30 04:28:20;;;;;;;;;;;;;;;;;;5034384;28;20232;-27
2023/07/30 04:30:46;;;;;;;;;;;;;;;;;;5034329;28;19979;-26
2023/07/30 04:33:13;;;;;;;;;;;;;;;;;;5034589;28;19920;-28
2023/07/30 04:35:39;;;;;;;;;;;;;;;;;;5034625;28;19971;-22
2023/07/30 04:38:05;;;;;;;;;;;;;;;;;;5034633;28;19909;-26
2023/07/30 04:40:31;;;;;;;;;;;;;;;;;;5034270;28;20367;-30
2023/07/30 04:42:57;;;;;;;;;;;;;;;;;;5034300;28;19971;-29
2023/07/30 04:45:23;;;;;;;;;;;;;;;;;;5037496;28;19948;-23
2023/07/30 04:47:49;;;;;;;;;;;;;;;;;;5037178;28;20339;-25
2023/07/30 04:50:15;;;;;;;;;;;;;;;;;;5038123;28;19936;-25
2023/07/30 04:52:41;;;;;;;;;;;;;;;;;;5038036;28;20401;-27
2023/07/30 04:55:07;;;;;;;;;;;;;;;;;;5038046;28;20217;-23
2023/07/30 04:57:33;;;;;;;;;;;;;;;;;;5037977;28;19948;-25
2023/07/30 04:59:59;;;;;;;;;;;;;;;;;;5037991;28;20000;-25
2023/07/30 05:02:25;;;;;;;;;;;;;;;;;;5038077;28;19909;-23
2023/07/30 05:04:51;;;;;;;;;;;;;;;;;;5037729;28;19932;-29
2023/07/30 05:07:17;;;;;;;;;;;;;;;;;;5038272;28;20402;-23
2023/07/30 05:09:43;;;;;;;;;;;;;;;;;;5037808;28;20285;-29
2023/07/30 05:12:09;;;;;;;;;;;;;;;;;;5037866;28;19928;-25
2023/07/30 05:14:35;;;;;;;;;;;;;;;;;;5037954;28;19983;-28
2023/07/30 05:17:01;;;;;;;;;;;;;;;;;;5037662;28;19971;-26
2023/07/30 05:19:26;;;;;;;;;;;;;;;;;;5036572;28;20027;-24
2023/07/30 05:21:52;;;;;;;;;;;;;;;;;;5037494;28;19909;-23
2023/07/30 05:24:18;;;;;;;;;;;;;;;;;;5037726;28;19913;-26
2023/07/30 05:26:44;;;;;;;;;;;;;;;;;;5036474;28;19971;-26
2023/07/30 05:29:10;;;;;;;;;;;;;;;;;;5037405;28;19963;-28
2023/07/30 05:31:36;;;;;;;;;;;;;;;;;;5037344;28;19909;-29
2023/07/30 05:34:02;;;;;;;;;;;;;;;;;;5037315;28;19971;-26
2023/07/30 05:36:28;;;;;;;;;;;;;;;;;;5037520;28;20244;-26
2023/07/30 05:38:54;;;;;;;;;;;;;;;;;;5037294;28;19909;-25
2023/07/30 05:41:21;;;;;;;;;;;;;;;;;;5037475;28;19924;-26
2023/07/30 05:43:47;;;;;;;;;;;;;;;;;;5037084;28;19957;-23
2023/07/30 05:46:13;;;;;;;;;;;;;;;;;;5037098;28;19908;-25
2023/07/30 05:48:39;;;;;;;;;;;;;;;;;;5037278;28;19924;-26
2023/07/30 05:51:05;;;;;;;;;;;;;;;;;;5037029;28;19916;-32
2023/07/30 05:53:31;;;;;;;;;;;;;;;;;;5036939;28;20311;-30
2023/07/30 05:55:57;;;;;;;;;;;;;;;;;;5037101;28;20249;-31
2023/07/30 05:58:23;;;;;;;;;;;;;;;;;;5036869;28;19975;-27
2023/07/30 06:00:49;;;;;;;;;;;;;;;;;;5036882;28;19972;-23
2023/07/30 06:03:15;;;;;;;;;;;;;;;;;;5036451;28;19909;-28
2023/07/30 06:05:41;;;;;;;;;;;;;;;;;;5036987;28;19968;-23
2023/07/30 06:08:07;;;;;;;;;;;;;;;;;;5036577;28;20428;-31
2023/07/30 06:10:33;;;;;;;;;;;;;;;;;;5036879;28;19956;-29
2023/07/30 06:12:59;;;;;;;;;;;;;;;;;;5036786;28;19920;-25
2023/07/30 06:15:25;;;;;;;;;;;;;;;;;;5036552;28;19917;-26
2023/07/30 06:17:51;;;;;;;;;;;;;;;;;;5036587;28;19917;-26
2023/07/30 06:20:17;;;;;;;;;;;;;;;;;;5036780;28;19936;-25
2023/07/30 06:22:42;;;;;;;;;;;;;;;;;;5036368;28;19913;-28
2023/07/30 06:25:08;;;;;;;;;;;;;;;;;;5036680;28;19955;-25
2023/07/30 06:27:34;;;;;;;;;;;;;;;;;;5035295;28;19913;-25
2023/07/30 06:30:00;;;;;;;;;;;;;;;;;;5036630;28;19910;-26
2023/07/30 06:32:26;;;;;;;;;;;;;;;;;;5036159;28;19914;-26
2023/07/30 06:34:52;;;;;;;;;;;;;;;;;;5036241;28;19909;-28
2023/07/30 06:37:18;;;;;;;;;;;;;;;;;;5036129;28;19924;-26
2023/07/30 06:39:44;;;;;;;;;;;;;;;;;;5036114;28;19909;-31
2023/07/30 06:42:10;;;;;;;;;;;;;;;;;;5035981;28;19936;-26
2023/07/30 06:44:36;;;;;;;;;;;;;;;;;;5036546;28;19909;-22
2023/07/30 06:47:02;;;;;;;;;;;;;;;;;;5035925;28;20356;-26
2023/07/30 06:49:28;;;;;;;;;;;;;;;;;;5034934;28;19913;-25
2023/07/30 06:51:54;;;;;;;;;;;;;;;;;;5035717;28;19909;-24
2023/07/30 06:54:20;;;;;;;;;;;;;;;;;;5036300;28;19955;-23
2023/07/30 06:56:46;;;;;;;;;;;;;;;;;;5035745;28;19920;-22
2023/07/30 06:59:12;;;;;;;;;;;;;;;;;;5035778;28;19916;-32
2023/07/30 07:01:38;;;;;;;;;;;;;;;;;;5035652;28;20334;-24
2023/07/30 07:04:04;;;;;;;;;;;;;;;;;;5035383;28;19947;-24
2023/07/30 07:06:30;;;;;;;;;;;;;;;;;;5035144;28;19909;-27
2023/07/30 07:08:56;;;;;;;;;;;;;;;;;;5035542;28;20205;-30
2023/07/30 07:11:22;;;;;;;;;;;;;;;;;;5035784;28;19916;-24
2023/07/30 07:13:48;;;;;;;;;;;;;;;;;;5035441;28;19909;-25
2023/07/30 07:16:13;;;;;;;;;;;;;;;;;;5035423;28;19909;-31
2023/07/30 07:18:39;;;;;;;;;;;;;;;;;;5035372;28;19909;-26
2023/07/30 07:21:05;;;;;;;;;;;;;;;;;;5035565;28;19909;-25
2023/07/30 07:23:32;;;;;;;;;;;;;;;;;;5035217;28;20000;-23
2023/07/30 07:25:57;;;;;;;;;;;;;;;;;;5035284;28;19909;-25
2023/07/30 07:28:23;;;;;;;;;;;;;;;;;;5035092;28;20302;-24
2023/07/30 07:30:49;;;;;;;;;;;;;;;;;;5035206;28;20217;-25
2023/07/30 07:33:15;;;;;;;;;;;;;;;;;;5035317;28;20337;-23
2023/07/30 07:35:41;;;;;;;;;;;;;;;;;;5035062;28;19909;-23
2023/07/30 07:38:07;;;;;;;;;;;;;;;;;;5035862;28;20000;-27
2023/07/30 07:40:33;;;;;;;;;;;;;;;;;;5035035;28;19963;-25
2023/07/30 07:42:59;;;;;;;;;;;;;;;;;;5033960;28;20256;-28
2023/07/30 07:45:25;;;;;;;;;;;;;;;;;;5034990;28;20313;-32
2023/07/30 07:47:51;;;;;;;;;;;;;;;;;;5034845;28;20050;-23
2023/07/30 07:50:17;;;;;;;;;;;;;;;;;;5034852;28;19909;-23
2023/07/30 07:52:43;;;;;;;;;;;;;;;;;;5034737;28;19920;-27
2023/07/30 07:55:09;;;;;;;;;;;;;;;;;;5034758;28;19913;-25
2023/07/30 07:57:35;;;;;;;;;;;;;;;;;;5034984;28;20403;-29
2023/07/30 08:00:01;;;;;;;;;;;;;;;;;;5035470;28;20004;-25
2023/07/30 08:02:27;;;;;;;;;;;;;;;;;;5034782;28;19949;-25
2023/07/30 08:04:53;;;;;;;;;;;;;;;;;;5034592;28;19953;-28
2023/07/30 08:07:19;;;;;;;;;;;;;;;;;;5034865;28;20328;-25
2023/07/30 08:09:45;;;;;;;;;;;;;;;;;;5034691;28;19909;-25
2023/07/30 08:12:12;;;;;;;;;;;;;;;;;;5034846;28;19964;-22
2023/07/30 08:14:38;;;;;;;;;;;;;;;;;;5034596;28;20382;-26
2023/07/30 08:17:04;;;;;;;;;;;;;;;;;;5033595;28;19917;-29
2023/07/30 08:19:30;;;;;;;;;;;;;;;;;;5036622;28;19909;-23
2023/07/30 08:21:58;;;;;;;;;;;;;;;;;;5038651;28;19909;-26
2023/07/30 08:24:24;;;;;;;;;;;;;;;;;;5038850;28;20043;-25
2023/07/30 08:26:50;;;;;;;;;;;;;;;;;;5038900;28;20332;-25
2023/07/30 08:29:16;;;;;;;;;;;;;;;;;;5038749;28;20248;-25
2023/07/30 08:31:42;;;;;;;;;;;;;;;;;;5038823;28;19909;-24
2023/07/30 08:34:08;;;;;;;;;;;;;;;;;;5037413;28;19909;-26
2023/07/30 08:36:34;;;;;;;;;;;;;;;;;;5038374;28;19910;-25
2023/07/30 08:39:00;;;;;;;;;;;;;;;;;;5038304;28;20291;-26
2023/07/30 08:41:25;;;;;;;;;;;;;;;;;;5038287;28;19951;-30
2023/07/30 08:43:52;;;;;;;;;;;;;;;;;;5038225;28;20328;-26
2023/07/30 08:46:18;;;;;;;;;;;;;;;;;;5038146;28;20431;-27
2023/07/30 08:48:44;;;;;;;;;;;;;;;;;;5038677;28;20000;-26
2023/07/30 08:51:10;;;;;;;;;;;;;;;;;;5038198;28;20332;-27
2023/07/30 08:53:36;;;;;;;;;;;;;;;;;;5038085;28;19909;-28
2023/07/30 08:56:02;;;;;;;;;;;;;;;;;;5038130;28;19920;-24
2023/07/30 08:58:29;;;;;;;;;;;;;;;;;;5038023;28;19975;-24
2023/07/30 09:00:55;;;;;;;;;;;;;;;;;;5038242;28;20338;-25
2023/07/30 09:03:21;;;;;;;;;;;;;;;;;;5037887;28;20020;-25
2023/07/30 09:05:46;;;;;;;;;;;;;;;;;;5038150;28;19928;-22
2023/07/30 09:08:13;;;;;;;;;;;;;;;;;;5037788;28;20268;-23
2023/07/30 09:10:38;;;;;;;;;;;;;;;;;;5037795;28;19920;-26
2023/07/30 09:13:04;;;;;;;;;;;;;;;;;;5037918;28;20252;-23
2023/07/30 09:15:32;;;;;;;;;;;;;;;;;;5037574;28;19945;-26
2023/07/30 09:17:58;;;;;;;;;;;;;;;;;;5037877;28;19974;-27
2023/07/30 09:20:23;;;;;;;;;;;;;;;;;;5037868;28;19909;-25
2023/07/30 09:22:50;;;;;;;;;;;;;;;;;;5037459;28;19957;-27
2023/07/30 09:25:16;;;;;;;;;;;;;;;;;;5037590;28;19909;-22
2023/07/30 09:27:42;;;;;;;;;;;;;;;;;;5036314;28;19924;-25
2023/07/30 09:30:08;;;;;;;;;;;;;;;;;;5037058;28;20225;-23
2023/07/30 09:32:34;;;;;;;;;;;;;;;;;;5037509;28;19905;-26
2023/07/30 09:35:00;;;;;;;;;;;;;;;;;;5037390;28;19984;-26
2023/07/30 09:37:26;;;;;;;;;;;;;;;;;;5037553;28;19909;-26
2023/07/30 09:39:52;;;;;;;;;;;;;;;;;;5037253;28;19909;-22
2023/07/30 09:42:18;;;;;;;;;;;;;;;;;;5037383;28;19913;-23
2023/07/30 09:44:44;;;;;;;;;;;;;;;;;;5037177;28;19909;-28
2023/07/30 09:47:10;;;;;;;;;;;;;;;;;;5037384;28;19912;-25
2023/07/30 09:49:36;;;;;;;;;;;;;;;;;;5037091;28;19996;-26
2023/07/30 09:52:02;;;;;;;;;;;;;;;;;;5037168;28;19959;-35
2023/07/30 09:54:28;;;;;;;;;;;;;;;;;;5036922;28;19921;-24
2023/07/30 09:56:54;;;;;;;;;;;;;;;;;;5036951;28;20034;-28
2023/07/30 09:59:20;;;;;;;;;;;;;;;;;;5035875;28;19909;-26
2023/07/30 10:01:46;;;;;;;;;;;;;;;;;;5036858;28;19924;-26
2023/07/30 10:04:12;;;;;;;;;;;;;;;;;;5036536;28;19921;-26
2023/07/30 10:06:38;;;;;;;;;;;;;;;;;;5036787;28;19917;-27
2023/07/30 10:09:04;;;;;;;;;;;;;;;;;;5036714;28;20287;-28
2023/07/30 10:11:30;;;;;;;;;;;;;;;;;;5036573;28;20371;-26
2023/07/30 10:13:56;;;;;;;;;;;;;;;;;;5036515;28;19999;-24
2023/07/30 10:16:22;;;;;;;;;;;;;;;;;;5036815;28;19956;-31
2023/07/30 10:18:54;;;;;;;;;;;;;;;;;;5036527;28;19929;-31
2023/07/30 10:21:20;;;;;;;;;;;;;;;;;;5036720;28;19991;-31
2023/07/30 10:23:46;;;;;;;;;;;;;;;;;;5036381;28;19909;-28
2023/07/30 10:26:12;;;;;;;;;;;;;;;;;;5036663;28;20340;-28
2023/07/30 10:28:43;;;;;;;;;;;;;;;;;;5035295;28;19913;-27
2023/07/30 10:31:10;;;;;;;;;;;;;;;;;;5036621;28;19909;-24
2023/07/30 10:33:36;;;;;;;;;;;;;;;;;;5036419;28;20004;-21
2023/07/30 10:36:01;;;;;;;;;;;;;;;;;;5036260;28;20022;-27
2023/07/30 10:38:28;;;;;;;;;;;;;;;;;;5036403;28;19909;-31
2023/07/30 10:40:54;;;;;;;;;;;;;;;;;;5035855;28;20340;-22
2023/07/30 10:43:20;;;;;;;;;;;;;;;;;;5035492;28;19928;-29
2023/07/30 10:45:46;;;;;;;;;;;;;;;;;;5036221;28;20009;-28
2023/07/30 10:48:12;;;;;;;;;;;;;;;;;;5034895;28;20248;-29
2023/07/30 10:50:38;;;;;;;;;;;;;;;;;;5035917;28;19909;-24
2023/07/30 10:53:04;;;;;;;;;;;;;;;;;;5035995;28;19913;-29
2023/07/30 10:55:30;;;;;;;;;;;;;;;;;;5035795;28;19963;-24
2023/07/30 10:57:56;;;;;;;;;;;;;;;;;;5035745;28;20345;-25
2023/07/30 11:00:22;;;;;;;;;;;;;;;;;;5036032;28;19909;-25
2023/07/30 11:02:48;;;;;;;;;;;;;;;;;;5035605;28;19913;-23
2023/07/30 11:05:14;;;;;;;;;;;;;;;;;;5035507;28;20345;-27
2023/07/30 11:07:40;;;;;;;;;;;;;;;;;;5035505;28;19917;-27
2023/07/30 11:10:06;;;;;;;;;;;;;;;;;;5035776;28;19955;-24
2023/07/30 11:12:32;;;;;;;;;;;;;;;;;;5035429;28;19910;-25
2023/07/30 11:14:58;;;;;;;;;;;;;;;;;;5036290;28;19909;-25
2023/07/30 11:17:25;;;;;;;;;;;;;;;;;;5035392;28;20007;-23
2023/07/30 11:19:51;;;;;;;;;;;;;;;;;;5035603;28;19909;-25
2023/07/30 11:22:17;;;;;;;;;;;;;;;;;;5035541;28;19962;-24
2023/07/30 11:24:43;;;;;;;;;;;;;;;;;;5035836;28;20005;-23
2023/07/30 11:27:09;;;;;;;;;;;;;;;;;;5035452;28;19909;-25
2023/07/30 11:29:35;;;;;;;;;;;;;;;;;;5035459;28;20050;-28
2023/07/30 11:32:03;;;;;;;;;;;;;;;;;;5034659;28;20214;-27
2023/07/30 11:34:29;;;;;;;;;;;;;;;;;;5035145;28;19983;-23
2023/07/30 11:36:55;;;;;;;;;;;;;;;;;;5035144;28;19995;-22
2023/07/30 11:39:21;;;;;;;;;;;;;;;;;;5035095;28;19913;-27
2023/07/30 11:41:47;;;;;;;;;;;;;;;;;;5035276;28;20249;-23
2023/07/30 11:44:13;;;;;;;;;;;;;;;;;;5034927;28;19920;-28
2023/07/30 11:46:39;;;;;;;;;;;;;;;;;;5035247;28;19905;-24
2023/07/30 11:49:05;;;;;;;;;;;;;;;;;;5034861;28;19917;-28
2023/07/30 11:51:31;;;;;;;;;;;;;;;;;;5035144;28;20344;-29
2023/07/30 11:53:57;;;;;;;;;;;;;;;;;;5034728;28;20352;-29
2023/07/30 11:56:23;;;;;;;;;;;;;;;;;;5034810;28;19916;-27
2023/07/30 11:58:49;;;;;;;;;;;;;;;;;;5034680;28;20338;-27
2023/07/30 12:01:15;;;;;;;;;;;;;;;;;;5035008;28;19909;-28
2023/07/30 12:03:41;;;;;;;;;;;;;;;;;;5034461;28;19932;-31
2023/07/30 12:06:07;;;;;;;;;;;;;;;;;;5035070;28;19956;-24
2023/07/30 12:08:33;;;;;;;;;;;;;;;;;;5035339;28;19921;-23
2023/07/30 12:10:59;;;;;;;;;;;;;;;;;;5033658;28;19913;-24
2023/07/30 12:13:25;;;;;;;;;;;;;;;;;;5034844;28;19940;-25
2023/07/30 12:15:51;;;;;;;;;;;;;;;;;;5034877;28;19982;-29
2023/07/30 12:18:17;;;;;;;;;;;;;;;;;;5034868;28;20344;-31
2023/07/30 12:20:43;;;;;;;;;;;;;;;;;;5034584;28;19908;-24
2023/07/30 12:23:09;;;;;;;;;;;;;;;;;;5034472;28;19913;-25
2023/07/30 12:25:35;;;;;;;;;;;;;;;;;;5034763;28;19944;-24
2023/07/30 12:28:01;;;;;;;;;;;;;;;;;;5034429;28;20332;-26
2023/07/30 12:30:27;;;;;;;;;;;;;;;;;;5034541;28;19909;-25
2023/07/30 12:32:53;;;;;;;;;;;;;;;;;;5034706;28;20240;-25
2023/07/30 12:35:19;;;;;;;;;;;;;;;;;;5034434;28;19918;-24
2023/07/30 12:37:45;;;;;;;;;;;;;;;;;;5035122;28;19981;-30
2023/07/30 12:40:11;;;;;;;;;;;;;;;;;;5034664;28;19920;-25
2023/07/30 12:42:37;;;;;;;;;;;;;;;;;;5034504;28;19992;-23
2023/07/30 12:45:03;;;;;;;;;;;;;;;;;;5034373;28;19909;-27
2023/07/30 12:47:29;;;;;;;;;;;;;;;;;;5034509;28;20020;-26
2023/07/30 12:49:55;;;;;;;;;;;;;;;;;;5034321;28;19909;-26
2023/07/30 12:52:21;;;;;;;;;;;;;;;;;;5034528;28;19909;-27
2023/07/30 12:54:47;;;;;;;;;;;;;;;;;;5034514;28;19914;-28
2023/07/30 12:57:14;;;;;;;;;;;;;;;;;;5034249;28;20255;-29
2023/07/30 12:59:40;;;;;;;;;;;;;;;;;;5034489;28;20000;-25
2023/07/30 13:02:05;;;;;;;;;;;;;;;;;;5034184;28;19959;-22
2023/07/30 13:04:31;;;;;;;;;;;;;;;;;;5034148;28;19971;-24
2023/07/30 13:06:57;;;;;;;;;;;;;;;;;;5037923;28;19909;-27
2023/07/30 13:09:23;;;;;;;;;;;;;;;;;;5038484;28;19913;-27
2023/07/30 13:11:49;;;;;;;;;;;;;;;;;;5037782;28;19916;-25
2023/07/30 13:14:15;;;;;;;;;;;;;;;;;;5038066;28;19928;-23
2023/07/30 13:16:41;;;;;;;;;;;;;;;;;;5037751;28;19909;-24
2023/07/30 13:19:07;;;;;;;;;;;;;;;;;;5037442;28;19920;-24
2023/07/30 13:21:33;;;;;;;;;;;;;;;;;;5037687;28;19909;-25
2023/07/30 13:23:59;;;;;;;;;;;;;;;;;;5037829;28;20240;-23
2023/07/30 13:26:25;;;;;;;;;;;;;;;;;;5037595;28;19959;-22
2023/07/30 13:28:51;;;;;;;;;;;;;;;;;;5037471;28;19920;-27
2023/07/30 13:31:18;;;;;;;;;;;;;;;;;;5037412;28;19909;-22
2023/07/30 13:33:46;;;;;;;;;;;;;;;;;;5037634;28;19909;-29
2023/07/30 13:36:12;;;;;;;;;;;;;;;;;;5037266;28;19915;-28
2023/07/30 13:38:39;;;;;;;;;;;;;;;;;;5037337;28;19956;-28
2023/07/30 13:41:05;;;;;;;;;;;;;;;;;;5037504;28;19910;-31
2023/07/30 13:43:31;;;;;;;;;;;;;;;;;;5037095;28;20025;-31
2023/07/30 13:45:57;;;;;;;;;;;;;;;;;;5037219;28;19979;-26
2023/07/30 13:48:23;;;;;;;;;;;;;;;;;;5037014;28;19913;-23
2023/07/30 13:50:49;;;;;;;;;;;;;;;;;;5037115;28;19920;-27
2023/07/30 13:53:15;;;;;;;;;;;;;;;;;;5036984;28;19967;-28
2023/07/30 13:55:41;;;;;;;;;;;;;;;;;;5037045;28;19917;-27
2023/07/30 13:58:07;;;;;;;;;;;;;;;;;;5036969;28;20248;-26
2023/07/30 14:00:33;;;;;;;;;;;;;;;;;;5036863;28;20004;-26
2023/07/30 14:03:00;;;;;;;;;;;;;;;;;;5037059;28;19916;-27
2023/07/30 14:05:28;;;;;;;;;;;;;;;;;;5036677;28;20031;-29
2023/07/30 14:07:56;;;;;;;;;;;;;;;;;;5036938;28;19975;-21
2023/07/30 14:10:22;;;;;;;;;;;;;;;;;;5036674;28;19910;-28
2023/07/30 14:12:48;;;;;;;;;;;;;;;;;;5036914;28;19927;-25
2023/07/30 14:15:14;;;;;;;;;;;;;;;;;;5037429;28;19909;-27
2023/07/30 14:17:40;;;;;;;;;;;;;;;;;;5035325;28;20040;-30
2023/07/30 14:20:06;;;;;;;;;;;;;;;;;;5036827;28;19958;-24
2023/07/30 14:22:32;;;;;;;;;;;;;;;;;;5036456;28;19924;-26
2023/07/30 14:24:58;;;;;;;;;;;;;;;;;;5036728;28;20333;-29
2023/07/30 14:27:24;;;;;;;;;;;;;;;;;;5036318;28;19909;-27
2023/07/30 14:29:51;;;;;;;;;;;;;;;;;;5036405;28;19916;-27
2023/07/30 14:32:17;;;;;;;;;;;;;;;;;;5036229;28;20205;-25
2023/07/30 14:34:43;;;;;;;;;;;;;;;;;;5036231;28;19909;-23
2023/07/30 14:37:09;;;;;;;;;;;;;;;;;;5036262;28;19919;-29
2023/07/30 14:39:35;;;;;;;;;;;;;;;;;;5036491;28;19947;-29
2023/07/30 14:42:01;;;;;;;;;;;;;;;;;;5036065;28;20332;-25
2023/07/30 14:44:27;;;;;;;;;;;;;;;;;;5036084;28;20007;-28
2023/07/30 14:46:53;;;;;;;;;;;;;;;;;;5036330;28;20032;-29
2023/07/30 14:49:19;;;;;;;;;;;;;;;;;;5036062;28;19921;-23
2023/07/30 14:51:45;;;;;;;;;;;;;;;;;;5036207;28;19913;-26
2023/07/30 14:54:12;;;;;;;;;;;;;;;;;;5035848;28;20001;-24
2023/07/30 14:56:38;;;;;;;;;;;;;;;;;;5035815;28;19913;-23
2023/07/30 14:59:04;;;;;;;;;;;;;;;;;;5036088;28;20329;-29
2023/07/30 15:01:30;;;;;;;;;;;;;;;;;;5035682;28;19909;-26
2023/07/30 15:03:56;;;;;;;;;;;;;;;;;;5035487;28;19928;-23
2023/07/30 15:06:22;;;;;;;;;;;;;;;;;;5035714;28;19909;-22
2023/07/30 15:08:48;;;;;;;;;;;;;;;;;;5035621;28;19956;-22
2023/07/30 15:11:14;;;;;;;;;;;;;;;;;;5035604;28;19919;-29
2023/07/30 15:13:40;;;;;;;;;;;;;;;;;;5035366;28;19920;-28
2023/07/30 15:16:06;;;;;;;;;;;;;;;;;;5035525;28;19909;-31
2023/07/30 15:18:33;;;;;;;;;;;;;;;;;;5035690;28;19909;-24
2023/07/30 15:20:59;;;;;;;;;;;;;;;;;;5035610;28;19912;-24
2023/07/30 15:23:25;;;;;;;;;;;;;;;;;;5035296;28;19909;-27
2023/07/30 15:25:54;;;;;;;;;;;;;;;;;;5035262;28;19936;-28
2023/07/30 15:28:20;;;;;;;;;;;;;;;;;;5034849;28;20332;-20
2023/07/30 15:30:46;;;;;;;;;;;;;;;;;;5035323;28;19928;-25
2023/07/30 15:33:12;;;;;;;;;;;;;;;;;;5035360;28;20248;-29
2023/07/30 15:35:38;;;;;;;;;;;;;;;;;;5035454;28;19909;-29
2023/07/30 15:38:04;;;;;;;;;;;;;;;;;;5035084;28;19916;-29
2023/07/30 15:40:30;;;;;;;;;;;;;;;;;;5035303;28;19909;-23
2023/07/30 15:42:56;;;;;;;;;;;;;;;;;;5034942;28;19916;-26
2023/07/30 15:45:22;;;;;;;;;;;;;;;;;;5035209;28;19915;-26
2023/07/30 15:47:48;;;;;;;;;;;;;;;;;;5034962;28;19913;-22
2023/07/30 15:50:14;;;;;;;;;;;;;;;;;;5035273;28;20383;-25
2023/07/30 15:52:40;;;;;;;;;;;;;;;;;;5034121;28;19999;-27
2023/07/30 15:55:06;;;;;;;;;;;;;;;;;;5035153;28;20000;-22
2023/07/30 15:57:32;;;;;;;;;;;;;;;;;;5033893;28;19920;-29
2023/07/30 15:59:59;;;;;;;;;;;;;;;;;;5034859;28;20352;-25
2023/07/30 16:02:25;;;;;;;;;;;;;;;;;;5034888;28;19939;-26
2023/07/30 16:04:50;;;;;;;;;;;;;;;;;;5034622;28;20369;-27
2023/07/30 16:07:16;;;;;;;;;;;;;;;;;;5034654;28;19916;-25
2023/07/30 16:09:42;;;;;;;;;;;;;;;;;;5034924;28;19909;-23
2023/07/30 16:12:08;;;;;;;;;;;;;;;;;;5034631;28;19913;-31
2023/07/30 16:14:34;;;;;;;;;;;;;;;;;;5035626;28;19919;-30
2023/07/30 16:17:00;;;;;;;;;;;;;;;;;;5034638;28;19931;-23
2023/07/30 16:19:26;;;;;;;;;;;;;;;;;;5034845;28;20301;-27
2023/07/30 16:21:54;;;;;;;;;;;;;;;;;;5034517;28;19979;-26
2023/07/30 16:24:20;;;;;;;;;;;;;;;;;;5034534;28;20012;-20
2023/07/30 16:26:46;;;;;;;;;;;;;;;;;;5034763;28;20281;-26
2023/07/30 16:29:12;;;;;;;;;;;;;;;;;;5034411;28;19997;-26
2023/07/30 16:31:38;;;;;;;;;;;;;;;;;;5034523;28;19920;-25
2023/07/30 16:34:04;;;;;;;;;;;;;;;;;;5034654;28;19971;-26
2023/07/30 16:36:30;;;;;;;;;;;;;;;;;;5034417;28;20252;-26